Vilas, Colorado
Current Conditions -  °F | °C
As of 2:53 AM on Friday 19 Dec 2014 (Local Time) from KLAA Reporting Station
Haze Haze  
Wind Chill: 24°   Ceiling: Unl
Heat Index: 24°   Visibility: 5mi
Dew Point: 23°   Wind: 3mph
Humidity: 96%   Direction: 220°SW
Pressure: 30.09"   Gusts: NA
Location:  37.37°N, 102.45°W
Report Text: KLAA 190953Z AUTO 22003KT 5SM BR FEW080 M04/M05 A3009 RMK AO2 SLP201 T10441050
Loading
Personal Weather Stations






























Interactive Weather Map New forecast layout! Learn more

10-Day Weather Forecast

Advertisements
Track Severe Weather on mobile